Time;durP1;ratioP1;P1;durP2;ratioP2;P2;SDS_P1;SDS_P2;PMS_P1;PMS_P2;Temp;Humidity;BMP_temperature;BMP_pressure;BME280_temperature;BME280_humidity;BME280_pressure;Samples;Min_cycle;Max_cycle;Signal;HPM_P1;HPM_P2
2023/07/05 07:27:25;;;;;;;;;3.67;3.67;;;;;16.13;60.44;101285.50;4892252;29;45220;-95
2023/07/05 07:29:52;;;;;;;;;4.00;4.00;;;;;16.10;60.18;101272.50;4900663;28;45396;-96
2023/07/05 07:32:18;;;;;;;;;4.75;4.50;;;;;16.19;60.33;101278.25;4871532;29;45627;-96
2023/07/05 07:34:43;;;;;;;;;5.33;3.00;;;;;16.19;60.13;101279.06;4869934;29;44760;-96
2023/07/05 07:37:14;;;;;;;;;8.00;4.25;;;;;16.27;59.67;101290.03;4870940;29;44721;-96
2023/07/05 07:39:40;;;;;;;;;3.25;3.25;;;;;16.33;59.79;101283.59;4887880;29;44905;-96
2023/07/05 07:42:05;;;;;;;;;4.75;4.00;;;;;16.33;59.87;101286.22;4888894;29;45638;-96
2023/07/05 07:44:34;;;;;;;;;4.00;3.25;;;;;16.37;59.44;101290.41;4896260;28;45132;-96
2023/07/05 07:47:00;;;;;;;;;4.00;3.00;;;;;16.38;59.76;101286.84;4885052;29;44814;-96
2023/07/05 07:49:25;;;;;;;;;5.00;3.67;;;;;16.49;59.48;101302.06;4900925;29;45001;-96
2023/07/05 07:51:52;;;;;;;;;9.00;5.00;;;;;16.56;59.28;101311.31;4886889;29;45454;-96
2023/07/05 07:54:26;;;;;;;;;4.33;4.33;;;;;16.62;59.14;101299.63;4884027;29;44768;-95
2023/07/05 07:56:55;;;;;;;;;4.00;4.00;;;;;16.61;58.89;101300.56;4867875;29;44783;-96
2023/07/05 07:59:21;;;;;;;;;3.67;2.67;;;;;16.77;59.06;101310.25;4869431;29;45369;-96
2023/07/05 08:01:46;;;;;;;;;5.00;5.00;;;;;16.77;58.58;101291.88;4866849;29;45747;-95
2023/07/05 08:04:13;;;;;;;;;3.67;3.67;;;;;16.82;58.68;101300.34;4869282;29;44718;-95
2023/07/05 08:06:50;;;;;;;;;3.33;3.33;;;;;16.89;58.44;101296.47;4878272;29;44761;-96
2023/07/05 08:09:23;;;;;;;;;6.75;4.00;;;;;16.97;58.84;101290.78;4875481;29;44815;-95
2023/07/05 08:11:49;;;;;;;;;9.00;6.00;;;;;17.12;58.23;101299.66;4870502;29;45949;-95
2023/07/05 08:14:17;;;;;;;;;7.33;5.00;;;;;17.14;58.04;101284.66;4871881;29;44738;-96
2023/07/05 08:16:44;;;;;;;;;4.67;4.33;;;;;17.21;58.42;101280.75;4874092;29;44790;-96
2023/07/05 08:19:10;;;;;;;;;3.33;3.33;;;;;17.33;58.18;101284.47;4875922;29;44920;-95
2023/07/05 08:21:39;;;;;;;;;5.00;3.33;;;;;17.36;57.68;101291.34;4870013;29;45748;-96
2023/07/05 08:24:05;;;;;;;;;5.00;3.00;;;;;17.44;57.35;101290.91;4870647;29;44849;-93
2023/07/05 08:26:35;;;;;;;;;3.00;3.00;;;;;17.44;57.17;101293.53;4904781;29;44734;-96
2023/07/05 08:29:01;;;;;;;;;4.00;4.00;;;;;17.38;57.61;101281.59;4892065;29;44938;-95
2023/07/05 08:31:26;;;;;;;;;3.00;3.00;;;;;17.40;57.28;101292.84;4886256;29;46868;-95
2023/07/05 08:33:51;;;;;;;;;5.67;4.00;;;;;17.40;56.95;101292.84;4886676;29;45249;-96
2023/07/05 08:36:34;;;;;;;;;4.00;3.67;;;;;17.46;56.99;101299.56;4888059;29;45370;-96
2023/07/05 08:39:05;;;;;;;;;4.67;4.33;;;;;17.54;56.89;101307.88;4884499;29;44898;-96
2023/07/05 08:41:45;;;;;;;;;3.67;3.00;;;;;17.58;56.85;101319.91;4886564;29;45549;-95
2023/07/05 08:44:26;;;;;;;;;3.00;2.00;;;;;17.66;56.53;101322.13;4885617;29;44834;-96
2023/07/05 08:47:01;;;;;;;;;6.00;4.00;;;;;17.69;55.88;101319.28;4884912;29;44788;-96
2023/07/05 08:49:43;;;;;;;;;5.00;3.00;;;;;17.71;55.97;101316.59;4887894;29;44917;-96
2023/07/05 08:52:29;;;;;;;;;2.33;2.33;;;;;17.74;56.09;101330.41;4887627;29;45763;-96
2023/07/05 08:54:59;;;;;;;;;4.00;3.00;;;;;17.83;55.95;101322.94;4905537;29;45362;-96
2023/07/05 08:57:33;;;;;;;;;4.00;3.00;;;;;17.93;55.98;101334.66;4892120;29;45269;-96
2023/07/05 09:00:11;;;;;;;;;3.67;3.00;;;;;17.96;55.35;101326.56;4886225;29;45252;-96
2023/07/05 09:02:37;;;;;;;;;4.00;3.00;;;;;18.07;55.52;101339.13;4882998;29;47080;-95
2023/07/05 09:05:04;;;;;;;;;4.00;2.00;;;;;18.11;56.06;101329.28;4868352;29;45413;-95
2023/07/05 09:07:54;;;;;;;;;2.00;2.00;;;;;18.25;55.39;101342.50;4883684;29;45391;-95
2023/07/05 09:10:44;;;;;;;;;5.00;4.67;;;;;18.30;55.04;101329.88;4883904;29;45252;-96
2023/07/05 09:13:30;;;;;;;;;5.00;4.00;;;;;18.44;55.00;101338.75;4884392;29;45729;-96
2023/07/05 09:16:09;;;;;;;;;4.33;3.33;;;;;18.48;54.70;101340.28;4885510;29;44878;-96
2023/07/05 09:18:40;;;;;;;;;3.00;3.00;;;;;18.54;54.46;101342.53;4885455;29;45371;-96
2023/07/05 09:21:18;;;;;;;;;3.67;3.67;;;;;18.59;54.90;101334.34;4890753;29;44869;-96
2023/07/05 09:23:56;;;;;;;;;6.00;3.67;;;;;18.62;54.89;101328.03;4885815;29;47193;-96
2023/07/05 09:26:35;;;;;;;;;4.00;3.67;;;;;18.69;54.60;101322.28;4885019;29;44906;-95
2023/07/05 09:29:06;;;;;;;;;3.67;3.67;;;;;18.80;54.31;101334.81;4887983;29;45390;-94
2023/07/05 09:31:34;;;;;;;;;4.33;3.00;;;;;18.85;54.01;101323.13;4889908;29;44901;-95
2023/07/05 09:34:37;;;;;;;;;4.67;3.33;;;;;18.93;54.33;101315.63;4889685;29;47362;-96
2023/07/05 09:37:16;;;;;;;;;2.67;2.67;;;;;19.04;54.02;101313.19;4873337;29;44768;-95
2023/07/05 09:40:09;;;;;;;;;4.00;3.00;;;;;19.29;54.01;101323.94;4883963;29;45364;-96
2023/07/05 09:42:42;;;;;;;;;4.67;3.67;;;;;19.27;53.54;101310.88;4891297;29;44797;-95
2023/07/05 09:45:12;;;;;;;;;3.33;3.33;;;;;19.39;53.04;101325.06;4893216;29;47296;-96
2023/07/05 09:47:37;;;;;;;;;3.00;3.00;;;;;19.40;52.41;101332.06;4883511;29;44964;-94
2023/07/05 09:50:18;;;;;;;;;3.00;2.00;;;;;19.44;52.44;101322.13;4883678;29;44838;-96
2023/07/05 09:53:13;;;;;;;;;2.33;2.00;;;;;19.49;52.38;101320.88;4884337;29;45502;-96
2023/07/05 09:56:10;;;;;;;;;3.67;3.33;;;;;19.57;52.44;101324.81;4883548;29;46928;-96
2023/07/05 09:58:37;;;;;;;;;6.00;5.00;;;;;19.57;52.24;101333.59;4880908;28;45372;-95
2023/07/05 10:01:06;;;;;;;;;3.67;2.33;;;;;19.57;51.98;101341.50;4865396;29;45256;-95
2023/07/05 10:03:37;;;;;;;;;3.00;3.00;;;;;19.64;51.97;101331.41;4881107;29;44872;-95
2023/07/05 10:06:08;;;;;;;;;5.00;3.00;;;;;19.74;51.85;101329.84;4884525;29;47502;-96
2023/07/05 10:08:51;;;;;;;;;7.67;4.67;;;;;19.94;51.46;101350.63;4892628;29;45326;-95
2023/07/05 10:11:33;;;;;;;;;3.33;3.33;;;;;20.07;51.28;101356.81;4906922;29;45289;-95
2023/07/05 10:14:12;;;;;;;;;4.00;3.33;;;;;20.16;51.12;101361.47;4910649;29;45263;-96
2023/07/05 10:16:45;;;;;;;;;2.00;2.00;;;;;20.19;50.74;101349.84;4902566;29;47389;-96
2023/07/05 10:19:25;;;;;;;;;2.00;2.00;;;;;20.36;50.21;101350.50;4903122;29;45401;-95
2023/07/05 10:22:16;;;;;;;;;4.33;3.00;;;;;20.50;50.42;101357.50;4897247;29;45513;-94
2023/07/05 10:24:47;;;;;;;;;3.00;3.00;;;;;20.62;49.75;101351.34;4883490;29;44888;-94
2023/07/05 10:27:32;;;;;;;;;3.67;3.67;;;;;20.73;49.85;101350.59;4883926;29;47665;-94
2023/07/05 10:30:06;;;;;;;;;2.33;2.33;;;;;20.82;49.20;101342.03;4883828;29;45206;-95
2023/07/05 10:32:32;;;;;;;;;3.67;3.00;;;;;20.87;48.73;101347.03;4885350;29;44826;-95
2023/07/05 10:34:59;;;;;;;;;3.00;3.00;;;;;20.97;49.01;101349.88;4884503;29;44906;-96
2023/07/05 10:37:32;;;;;;;;;3.33;3.33;;;;;21.09;48.58;101361.38;4885195;29;47402;-95
2023/07/05 10:40:03;;;;;;;;;3.67;3.00;;;;;21.15;48.50;101363.59;4884449;29;45204;-96
2023/07/05 10:42:30;;;;;;;;;2.00;2.00;;;;;21.12;47.61;101342.66;4884905;29;44769;-96
2023/07/05 10:44:58;;;;;;;;;0.33;0.33;;;;;21.14;47.97;101348.66;4887206;29;44892;-96
2023/07/05 10:47:24;;;;;;;;;2.33;2.33;;;;;21.21;47.87;101351.72;4890432;29;46869;-96
2023/07/05 10:49:52;;;;;;;;;2.00;2.00;;;;;21.30;47.90;101359.00;4888479;29;44971;-95
2023/07/05 10:52:22;;;;;;;;;3.00;3.00;;;;;21.45;47.42;101342.97;4891566;29;45443;-96
2023/07/05 10:55:10;;;;;;;;;3.33;1.33;;;;;21.60;47.20;101356.88;4885813;29;45225;-96
2023/07/05 10:57:44;;;;;;;;;3.00;1.33;;;;;21.64;46.88;101350.41;4885909;29;47156;-96
2023/07/05 11:00:23;;;;;;;;;3.00;3.00;;;;;21.60;46.85;101338.34;4884924;29;45310;-95
2023/07/05 11:02:56;;;;;;;;;3.00;3.00;;;;;21.57;45.83;101328.00;4885191;29;44841;-95
2023/07/05 11:05:28;;;;;;;;;3.00;2.33;;;;;21.51;46.18;101326.63;4884254;29;45499;-96
2023/07/05 11:07:58;;;;;;;;;4.00;2.67;;;;;21.48;46.22;101327.69;4886631;29;47579;-96
2023/07/05 11:10:25;;;;;;;;;3.00;3.00;;;;;21.51;45.81;101336.41;4885433;29;45385;-96
2023/07/05 11:12:51;;;;;;;;;3.00;3.00;;;;;21.59;46.75;101341.97;4883414;29;45438;-95
2023/07/05 11:15:21;;;;;;;;;4.67;3.33;;;;;21.73;46.09;101333.88;4886956;29;44894;-95
2023/07/05 11:17:51;;;;;;;;;4.00;3.67;;;;;21.82;45.34;101342.94;4880185;29;46254;-96
2023/07/05 11:20:36;;;;;;;;;3.67;3.00;;;;;21.87;45.98;101351.41;4884091;28;44809;-96
2023/07/05 11:23:01;;;;;;;;;3.00;3.00;;;;;21.82;45.66;101356.19;4886012;29;45475;-95
2023/07/05 11:25:52;;;;;;;;;2.00;2.00;;;;;21.80;45.22;101349.31;4887852;29;45006;-95
2023/07/05 11:28:38;;;;;;;;;4.33;3.00;;;;;21.89;45.17;101349.47;4889830;29;45665;-96
2023/07/05 11:31:27;;;;;;;;;3.33;2.33;;;;;21.99;45.86;101346.97;4891485;29;45506;-96
2023/07/05 11:34:21;;;;;;;;;5.33;1.67;;;;;22.29;45.24;101340.31;4874825;29;45397;-96
2023/07/05 11:36:50;;;;;;;;;2.00;2.00;;;;;22.39;44.83;101335.13;4856086;29;44768;-96
2023/07/05 11:39:35;;;;;;;;;4.33;3.00;;;;;22.60;45.19;101331.81;4856173;29;46745;-96
2023/07/05 11:42:15;;;;;;;;;1.67;1.67;;;;;22.93;45.10;101347.84;4857493;29;44759;-96
2023/07/05 11:44:49;;;;;;;;;1.33;1.33;;;;;23.10;44.28;101338.56;4868000;29;45379;-95
2023/07/05 11:47:32;;;;;;;;;4.00;3.00;;;;;23.29;43.54;101348.50;4868744;29;45063;-96
2023/07/05 11:50:04;;;;;;;;;3.00;1.67;;;;;23.28;43.73;101338.88;4897386;29;47250;-95
2023/07/05 11:52:33;;;;;;;;;3.00;1.67;;;;;23.35;43.21;101333.94;4876360;29;44629;-96
2023/07/05 11:55:08;;;;;;;;;2.00;2.00;;;;;23.43;43.11;101339.50;4869875;29;45392;-96
2023/07/05 11:57:40;;;;;;;;;2.00;2.00;;;;;23.40;42.70;101321.13;4856148;29;44792;-96
2023/07/05 12:00:28;;;;;;;;;2.00;1.00;;;;;23.36;42.83;101327.66;4864151;29;46856;-96
2023/07/05 12:03:03;;;;;;;;;2.00;2.00;;;;;23.38;41.78;101333.72;4891461;29;44802;-96
2023/07/05 12:05:32;;;;;;;;;2.33;1.33;;;;;23.32;42.33;101327.06;4899648;29;44730;-95
2023/07/05 12:08:13;;;;;;;;;5.00;2.00;;;;;23.37;41.94;101344.44;4901442;29;44908;-96
2023/07/05 12:10:46;;;;;;;;;1.00;0.00;;;;;23.26;42.64;101327.53;4898577;28;45545;-96
2023/07/05 12:13:19;;;;;;;;;2.67;2.00;;;;;23.20;42.52;101347.44;4896056;28;44795;-96
2023/07/05 12:15:45;;;;;;;;;1.67;1.67;;;;;23.11;41.37;101342.03;4892414;29;45372;-96
2023/07/05 12:18:14;;;;;;;;;1.00;1.00;;;;;22.96;41.21;101337.00;4891073;29;45346;-96
2023/07/05 12:20:43;;;;;;;;;2.00;2.00;;;;;22.80;42.28;101332.91;4897840;29;47012;-96
2023/07/05 12:23:14;;;;;;;;;1.67;1.67;;;;;22.65;41.44;101326.16;4899044;29;45207;-96
2023/07/05 12:25:45;;;;;;;;;1.33;1.33;;;;;22.54;41.85;101338.44;4898866;29;44872;-96
2023/07/05 12:28:19;;;;;;;;;3.33;2.67;;;;;22.34;41.69;101339.09;4895955;28;44845;-96
2023/07/05 12:30:59;;;;;;;;;3.00;3.00;;;;;22.21;42.00;101344.50;4896336;29;45196;-96
2023/07/05 12:49:30;;;;;;;;;2.67;2.33;;;;;21.92;45.44;101344.88;4898765;28;46154;-96
2023/07/05 12:52:02;;;;;;;;;3.00;3.00;;;;;22.04;45.12;101351.94;4902730;29;45470;-96
2023/07/05 12:54:46;;;;;;;;;2.00;2.00;;;;;22.16;44.83;101339.53;4897458;28;44843;-96
2023/07/05 12:57:27;;;;;;;;;2.33;1.67;;;;;22.32;45.00;101336.59;4896154;29;44813;-96
2023/07/05 13:15:39;;;;;;;;;1.67;1.00;;;;;23.31;43.45;101346.63;4898472;29;44646;-96
2023/07/05 14:59:44;;;;;;;;;1.00;1.00;;;;;23.65;39.62;101324.41;4918093;29;44626;-96
2023/07/05 15:02:21;;;;;;;;;0.33;0.33;;;;;23.65;39.63;101310.31;4901843;29;45425;-96
2023/07/05 19:05:24;;;;;;;;;2.33;2.33;;;;;22.20;39.87;101367.50;1112168;23;46127;-96
2023/07/05 19:07:50;;;;;;;;;3.67;2.67;;;;;22.07;39.34;101346.38;4868020;29;44839;-96
2023/07/05 19:10:17;;;;;;;;;2.00;2.00;;;;;22.05;39.38;101366.00;4886884;29;44867;-96
2023/07/05 19:12:43;;;;;;;;;2.00;2.00;;;;;22.00;39.70;101367.19;4886317;29;47360;-96
2023/07/05 19:15:09;;;;;;;;;3.00;2.00;;;;;21.98;40.24;101371.78;4869765;29;44805;-96
2023/07/05 19:17:36;;;;;;;;;1.67;1.67;;;;;21.94;40.32;101372.97;4869691;29;45470;-97
2023/07/05 19:20:05;;;;;;;;;4.00;3.00;;;;;21.88;40.47;101374.28;4898200;29;45012;-96
2023/07/05 19:22:35;;;;;;;;;4.00;2.33;;;;;21.87;40.08;101375.25;4881319;29;47487;-96
2023/07/05 20:01:52;;;;;;;;;4.67;4.67;;;;;21.47;41.43;101404.59;4884157;29;46179;-96
2023/07/05 20:04:18;;;;;;;;;2.33;1.33;;;;;21.41;41.96;101412.97;4848985;29;45528;-96
2023/07/05 20:06:43;;;;;;;;;7.00;3.67;;;;;21.34;41.60;101418.69;4849926;29;44842;-96
2023/07/05 20:09:09;;;;;;;;;3.33;3.33;;;;;21.29;41.81;101417.34;4865656;29;45452;-96
2023/07/05 20:11:34;;;;;;;;;0.67;0.33;;;;;21.26;42.51;101425.50;4850325;29;45739;-96
2023/07/05 20:13:59;;;;;;;;;4.33;4.33;;;;;21.19;42.02;101422.44;4849426;29;47310;-96
2023/07/05 20:16:25;;;;;;;;;2.00;1.33;;;;;21.15;42.34;101429.75;4850700;29;44830;-96
2023/07/05 20:18:50;;;;;;;;;4.00;4.00;;;;;21.11;42.38;101430.06;4867938;29;45327;-96
2023/07/05 20:21:16;;;;;;;;;3.33;3.33;;;;;21.06;42.54;101430.41;4868362;29;46133;-96
2023/07/05 20:23:41;;;;;;;;;3.00;3.00;;;;;21.03;42.68;101434.13;4867873;29;47068;-95
2023/07/05 20:26:07;;;;;;;;;4.67;3.33;;;;;20.98;42.38;101435.38;4867302;29;45439;-94
2023/07/05 20:28:33;;;;;;;;;3.00;3.00;;;;;20.94;42.48;101437.38;4867408;29;45252;-95
2023/07/05 20:30:59;;;;;;;;;4.33;4.33;;;;;20.91;42.47;101438.44;4867553;29;45356;-96
2023/07/05 20:33:26;;;;;;;;;5.00;5.00;;;;;20.86;42.91;101431.75;4848776;29;45376;-96
2023/07/05 20:35:58;;;;;;;;;7.00;6.33;;;;;20.82;43.03;101436.41;4849420;29;46141;-96
2023/07/05 20:38:24;;;;;;;;;6.33;6.33;;;;;20.74;42.85;101439.56;4864691;29;45161;-96
2023/07/05 20:40:52;;;;;;;;;7.50;7.50;;;;;20.68;42.83;101440.84;4849103;29;45417;-96
2023/07/05 20:43:18;;;;;;;;;7.00;6.00;;;;;20.63;43.33;101450.88;4848841;29;45393;-96
2023/07/05 20:45:43;;;;;;;;;5.33;5.00;;;;;20.57;43.42;101451.28;4863843;29;44784;-96
2023/07/05 20:48:09;;;;;;;;;7.00;6.00;;;;;20.51;43.47;101449.91;4873803;29;45650;-96
2023/07/05 20:50:34;;;;;;;;;9.67;7.00;;;;;20.46;43.46;101456.47;4884339;29;44916;-96
2023/07/05 20:53:00;;;;;;;;;6.00;5.33;;;;;20.36;43.50;101454.41;4867924;29;47492;-94
2023/07/05 20:55:25;;;;;;;;;4.00;4.00;;;;;20.30;43.61;101452.19;4883450;29;44821;-95
2023/07/05 20:57:50;;;;;;;;;6.00;4.67;;;;;20.26;43.78;101459.47;4867075;29;45409;-95
2023/07/05 21:00:17;;;;;;;;;3.33;3.00;;;;;20.21;43.75;101471.28;4879208;29;45235;-95
2023/07/05 21:02:43;;;;;;;;;3.00;3.00;;;;;20.12;44.33;101463.03;4885760;29;47527;-95
2023/07/05 21:05:13;;;;;;;;;4.00;4.00;;;;;20.10;44.30;101466.72;4901812;29;45409;-95
2023/07/05 21:07:39;;;;;;;;;4.00;4.00;;;;;20.03;44.77;101468.88;4886502;29;45478;-95
2023/07/05 21:10:05;;;;;;;;;4.00;4.00;;;;;19.98;44.91;101463.91;4902508;29;45685;-95
2023/07/05 21:12:33;;;;;;;;;4.00;4.00;;;;;19.92;44.93;101466.06;4885424;29;47603;-95
2023/07/05 21:14:58;;;;;;;;;5.00;3.67;;;;;19.85;44.97;101466.47;4902177;29;45521;-95
2023/07/05 21:17:23;;;;;;;;;3.33;3.33;;;;;19.79;45.34;101466.00;4901963;29;45454;-96
2023/07/05 21:19:49;;;;;;;;;7.00;4.00;;;;;19.71;44.80;101471.75;4902333;29;45346;-95
2023/07/05 21:22:14;;;;;;;;;6.00;4.67;;;;;19.68;45.52;101474.63;4887893;29;47422;-94
2023/07/05 21:24:40;;;;;;;;;3.00;3.00;;;;;19.62;45.33;101466.13;4887450;29;45376;-96
2023/07/05 21:27:05;;;;;;;;;5.00;4.33;;;;;19.55;45.61;101461.31;4901259;28;45309;-95
2023/07/05 21:29:31;;;;;;;;;4.00;3.00;;;;;19.52;45.88;101470.28;4886490;29;44907;-96
2023/07/05 21:31:57;;;;;;;;;6.00;6.00;;;;;19.45;46.17;101464.53;4885884;29;46942;-96
2023/07/05 21:34:22;;;;;;;;;7.00;5.25;;;;;19.39;45.90;101467.56;4901854;29;44797;-95
2023/07/05 21:36:47;;;;;;;;;4.00;4.00;;;;;19.33;46.57;101465.31;4901851;29;45412;-95
2023/07/05 21:39:14;;;;;;;;;6.00;6.00;;;;;19.28;46.36;101470.88;4886490;29;46255;-95
2023/07/05 21:41:40;;;;;;;;;5.00;4.00;;;;;19.23;46.80;101475.56;4900798;28;47202;-95
2023/07/05 21:44:13;;;;;;;;;5.67;5.67;;;;;19.18;47.06;101478.50;4885683;29;45487;-95
2023/07/05 21:46:40;;;;;;;;;5.33;4.33;;;;;19.12;46.88;101470.94;4886219;29;45276;-95
2023/07/05 21:49:06;;;;;;;;;4.67;4.67;;;;;19.08;47.14;101475.56;4886115;29;45361;-95
2023/07/05 21:51:34;;;;;;;;;5.33;5.33;;;;;19.02;47.32;101472.44;4885874;29;47645;-95
2023/07/05 21:54:01;;;;;;;;;5.00;4.00;;;;;18.99;47.48;101470.81;4885707;29;45513;-96
2023/07/05 21:56:29;;;;;;;;;6.00;6.00;;;;;18.92;47.74;101469.47;4881881;29;45419;-95
2023/07/05 21:58:59;;;;;;;;;6.00;5.00;;;;;18.88;48.05;101475.91;4866765;29;45500;-95
2023/07/05 22:01:29;;;;;;;;;6.33;5.00;;;;;18.85;48.36;101473.44;4882482;29;47435;-95
2023/07/05 22:03:58;;;;;;;;;6.00;5.00;;;;;18.78;48.36;101481.72;4881978;29;45387;-95
2023/07/05 22:06:25;;;;;;;;;5.67;4.00;;;;;18.75;48.45;101481.88;4882370;29;45425;-94
2023/07/05 22:08:54;;;;;;;;;10.67;6.00;;;;;18.70;48.42;101483.94;4882308;29;44936;-94
2023/07/05 22:11:20;;;;;;;;;6.00;6.00;;;;;18.66;48.90;101485.06;4890454;28;47351;-96
2023/07/05 22:13:47;;;;;;;;;5.00;5.00;;;;;18.63;48.54;101488.72;4901142;29;45433;-96
2023/07/05 22:16:18;;;;;;;;;7.00;6.33;;;;;18.59;49.08;101484.56;4885451;29;44712;-94
2023/07/05 22:18:47;;;;;;;;;8.00;5.33;;;;;18.55;48.89;101486.53;4885273;29;45478;-96
2023/07/05 22:21:14;;;;;;;;;5.00;4.67;;;;;18.50;48.98;101485.09;4885324;29;46731;-96
2023/07/05 22:23:46;;;;;;;;;4.00;3.33;;;;;18.45;49.29;101490.63;4885247;29;45402;-95
2023/07/05 22:26:11;;;;;;;;;6.67;5.00;;;;;18.39;49.45;101486.59;4884362;29;45365;-95
2023/07/05 22:28:37;;;;;;;;;8.00;6.00;;;;;18.37;49.45;101484.97;4885374;29;45400;-95
2023/07/05 22:31:03;;;;;;;;;5.67;5.00;;;;;18.33;49.48;101481.66;4885091;29;47198;-95
2023/07/05 22:33:28;;;;;;;;;5.00;5.00;;;;;18.29;49.88;101483.59;4900880;29;44900;-95
2023/07/05 22:36:02;;;;;;;;;7.00;6.67;;;;;18.26;49.75;101491.69;4885083;29;45437;-95
2023/07/05 22:38:29;;;;;;;;;5.00;5.00;;;;;18.25;50.06;101489.16;4901305;29;45272;-95
2023/07/05 22:40:58;;;;;;;;;4.00;4.00;;;;;18.20;50.26;101492.06;4900035;28;48151;-94
2023/07/05 22:43:24;;;;;;;;;6.00;5.00;;;;;18.15;50.78;101494.94;4884738;29;45393;-94
2023/07/05 22:45:56;;;;;;;;;8.00;5.67;;;;;18.12;50.94;101488.97;4900729;29;45402;-95
2023/07/05 22:48:22;;;;;;;;;7.00;7.00;;;;;18.07;50.51;101486.63;4900698;29;45369;-95
2023/07/05 22:50:48;;;;;;;;;7.00;5.00;;;;;18.07;50.62;101493.66;4900543;29;47425;-95
2023/07/05 22:53:13;;;;;;;;;7.00;6.25;;;;;18.02;50.98;101486.81;4900622;29;44769;-96
2023/07/05 22:55:39;;;;;;;;;6.25;5.00;;;;;17.99;50.91;101492.28;4899567;28;44849;-95
2023/07/05 22:58:05;;;;;;;;;7.00;4.67;;;;;17.97;51.27;101491.50;4901087;29;45291;-94
2023/07/05 23:00:30;;;;;;;;;6.75;5.75;;;;;17.94;51.60;101485.56;4884690;29;47505;-95
2023/07/05 23:02:57;;;;;;;;;7.50;6.75;;;;;17.93;51.49;101486.50;4884866;29;45475;-95
2023/07/05 23:05:26;;;;;;;;;6.00;6.00;;;;;17.88;51.83;101482.31;4885202;29;45413;-95
2023/07/05 23:07:51;;;;;;;;;10.25;6.75;;;;;17.86;51.75;101480.72;4900957;29;45473;-95
2023/07/05 23:10:17;;;;;;;;;6.00;6.00;;;;;17.83;51.71;101476.47;4884084;29;47251;-96
2023/07/05 23:43:41;;;;;;;;;7.75;6.50;;;;;17.42;53.21;101483.06;4883643;29;44937;-96
2023/07/05 23:46:09;;;;;;;;;7.25;6.75;;;;;17.38;53.66;101471.00;4884395;29;45333;-96
2023/07/05 23:48:37;;;;;;;;;9.25;8.75;;;;;17.36;53.21;101472.88;4884387;29;44953;-96
2023/07/05 23:51:05;;;;;;;;;6.50;6.50;;;;;17.34;53.43;101477.34;4884152;29;45951;-96
2023/07/05 23:53:31;;;;;;;;;5.75;5.00;;;;;17.31;53.92;101472.25;4867553;29;45564;-96
2023/07/05 23:55:56;;;;;;;;;8.50;7.50;;;;;17.26;54.05;101469.84;4865386;29;45315;-96
2023/07/05 23:58:27;;;;;;;;;7.00;7.00;;;;;17.24;53.87;101482.25;4884356;29;46427;-93
